createdAt,value
2022-11-28T00:00:24.993Z,101541.56
2022-11-28T00:05:31.426Z,101526.25
2022-11-28T00:10:35.239Z,101505.50
2022-11-28T00:15:37.812Z,101503.59
2022-11-28T00:20:49.545Z,101493.75
2022-11-28T00:26:04.103Z,101497.56
2022-11-28T00:31:13.794Z,101468.84
2022-11-28T00:36:24.051Z,101481.94
2022-11-28T00:41:36.965Z,101484.34
2022-11-28T00:46:49.633Z,101467.41
2022-11-28T00:51:54.286Z,101464.16
2022-11-28T00:56:58.965Z,101449.19
2022-11-28T01:02:03.848Z,101447.84
2022-11-28T01:07:13.030Z,101437.22
2022-11-28T01:12:16.101Z,101396.03
2022-11-28T01:17:19.342Z,101380.47
2022-11-28T01:22:25.470Z,101376.66
2022-11-28T01:27:32.760Z,101396.31
2022-11-28T01:32:36.159Z,101389.00
2022-11-28T01:37:43.461Z,101401.56
2022-11-28T01:42:46.818Z,101393.94
2022-11-28T01:47:56.729Z,101396.16
2022-11-28T01:53:09.374Z,101376.00
2022-11-28T01:58:17.554Z,101367.84
2022-11-28T02:05:24.582Z,101359.16
2022-11-28T02:10:57.327Z,101371.22
2022-11-28T02:16:52.899Z,101378.63
2022-11-28T02:22:05.526Z,101402.13
2022-11-28T02:27:48.085Z,101392.53
2022-11-28T02:33:19.824Z,101365.22
2022-11-28T02:38:51.005Z,101378.34
2022-11-28T02:44:12.461Z,101371.81
2022-11-28T02:49:44.425Z,101376.75
2022-11-28T02:54:52.516Z,101385.25
2022-11-28T03:05:36.202Z,101361.47
2022-11-28T03:11:01.250Z,101341.78
2022-11-28T03:16:40.207Z,101340.97
2022-11-28T03:22:26.125Z,101349.44
2022-11-28T03:27:54.781Z,101345.84
2022-11-28T03:33:01.914Z,101335.44
2022-11-28T03:38:18.982Z,101317.41
2022-11-28T03:43:40.215Z,101339.78
2022-11-28T03:49:13.255Z,101329.59
2022-11-28T03:54:36.136Z,101317.78
2022-11-28T03:59:52.151Z,101321.81
2022-11-28T04:05:17.788Z,101334.59
2022-11-28T04:10:49.144Z,101317.91
2022-11-28T04:16:16.506Z,101309.72
2022-11-28T04:21:40.996Z,101308.38
2022-11-28T04:26:51.129Z,101286.84
2022-11-28T04:31:59.834Z,101298.06
2022-11-28T04:37:09.810Z,101289.34
2022-11-28T04:42:29.541Z,101280.91
2022-11-28T04:47:38.614Z,101274.34
2022-11-28T04:53:00.875Z,101276.00
2022-11-28T04:58:23.042Z,101272.19
2022-11-28T05:03:41.174Z,101268.63
2022-11-28T05:08:54.179Z,101256.34
2022-11-28T05:13:58.481Z,101242.16
2022-11-28T05:19:04.296Z,101239.16
2022-11-28T05:29:25.797Z,101232.88
2022-11-28T05:34:36.029Z,101223.56
2022-11-28T05:39:42.069Z,101227.09
2022-11-28T05:44:44.505Z,101215.06
2022-11-28T05:49:50.461Z,101210.69
2022-11-28T05:55:05.603Z,101207.97
2022-11-28T06:00:14.110Z,101197.84
2022-11-28T06:05:41.782Z,101202.75
2022-11-28T06:11:02.599Z,101197.28
2022-11-28T06:16:13.711Z,101185.56
2022-11-28T06:21:21.129Z,101182.00
2022-11-28T06:26:33.701Z,101177.06
2022-11-28T06:31:41.370Z,101167.22
2022-11-28T06:36:47.611Z,101170.78
2022-11-28T06:41:49.898Z,101159.88
2022-11-28T06:46:56.007Z,101151.41
2022-11-28T06:52:02.042Z,101161.53
2022-11-28T06:57:06.081Z,101164.56
2022-11-28T07:02:17.185Z,101156.66
2022-11-28T07:07:23.687Z,101149.84
2022-11-28T07:12:42.069Z,101144.38
2022-11-28T07:17:46.981Z,101142.19
2022-11-28T07:22:58.899Z,101148.75
2022-11-28T07:28:07.511Z,101144.97
2022-11-28T07:33:11.357Z,101153.72
2022-11-28T07:38:14.221Z,101144.97
2022-11-28T07:43:17.222Z,101144.97
2022-11-28T07:48:22.532Z,101149.31
2022-11-28T07:53:28.096Z,101155.31
2022-11-28T07:58:33.313Z,101169.25
2022-11-28T08:03:47.316Z,101164.88
2022-11-28T08:08:55.867Z,101163.78
2022-11-28T08:14:00.524Z,101164.06
2022-11-28T08:19:05.844Z,101161.84
2022-11-28T08:24:12.932Z,101169.50
2022-11-28T08:29:20.223Z,101180.41
2022-11-28T08:34:38.421Z,101173.88
2022-11-28T08:39:45.621Z,101167.84
2022-11-28T08:44:49.112Z,101177.13
2022-11-28T08:49:55.134Z,101188.56
2022-11-28T08:54:58.685Z,101206.31
2022-11-28T09:00:06.226Z,101207.66
2022-11-28T09:05:13.017Z,101203.56
2022-11-28T09:10:21.036Z,101201.91
2022-11-28T09:15:29.319Z,101214.19
2022-11-28T09:20:42.353Z,101225.63
2022-11-28T09:31:17.798Z,101224.19
2022-11-28T09:36:29.004Z,101208.06
2022-11-28T09:42:26.986Z,101210.22
2022-11-28T09:47:41.060Z,101211.81
2022-11-28T09:53:12.181Z,101227.63
2022-11-28T09:58:51.476Z,101227.63
2022-11-28T10:04:12.982Z,101232.00
2022-11-28T10:09:47.333Z,101245.66
2022-11-28T10:15:05.885Z,101248.66
2022-11-28T10:20:30.900Z,101252.47
2022-11-28T10:25:56.346Z,101263.13
2022-11-28T10:31:19.687Z,101283.56
2022-11-28T10:37:05.310Z,101276.75
2022-11-28T10:42:27.685Z,101281.41
2022-11-28T10:48:37.574Z,101280.31
2022-11-28T10:54:11.942Z,101286.59
2022-11-28T10:59:27.024Z,101269.97
2022-11-28T11:04:33.985Z,101259.34
2022-11-28T11:15:00.623Z,101266.00
2022-11-28T11:20:05.070Z,101267.13
2022-11-28T11:25:17.689Z,101269.34
2022-11-28T11:30:34.401Z,101283.56
2022-11-28T11:35:50.161Z,101281.94
2022-11-28T11:40:57.345Z,101280.06
2022-11-28T11:46:13.616Z,101263.75
2022-11-28T11:51:42.383Z,101255.06
2022-11-28T11:57:05.794Z,101238.13
2022-11-28T12:02:46.325Z,101244.72
2022-11-28T12:08:02.640Z,101230.00
2022-11-28T12:13:06.337Z,101252.16
2022-11-28T12:18:39.308Z,101265.00
2022-11-28T12:24:11.560Z,101274.59
2022-11-28T12:29:47.319Z,101268.34
2022-11-28T12:35:33.375Z,101270.06
2022-11-28T12:41:03.868Z,101267.19
2022-11-28T12:46:12.159Z,101270.06
2022-11-28T12:51:44.188Z,101276.66
2022-11-28T12:57:06.278Z,101276.69
2022-11-28T13:02:37.032Z,101278.84
2022-11-28T13:08:14.125Z,101269.00
2022-11-28T13:13:36.387Z,101274.47
2022-11-28T13:19:16.056Z,101268.16
2022-11-28T13:24:32.307Z,101282.13
2022-11-28T13:30:04.229Z,101279.66
2022-11-28T13:35:23.831Z,101289.50
2022-11-28T13:41:28.756Z,101283.78
2022-11-28T13:46:40.359Z,101277.19
2022-11-28T13:52:32.434Z,101268.41
2022-11-28T13:57:43.149Z,101275.47
2022-11-28T14:03:00.397Z,101264.09
2022-11-28T14:08:08.041Z,101260.19
2022-11-28T14:13:33.428Z,101251.88
2022-11-28T14:19:01.574Z,101251.13
2022-11-28T14:24:37.791Z,101266.69
2022-11-28T14:29:46.104Z,101263.16
2022-11-28T14:34:50.353Z,101274.72
2022-11-28T14:39:58.339Z,101267.56
2022-11-28T14:45:42.580Z,101272.53
2022-11-28T14:50:49.285Z,101271.72
2022-11-28T14:56:14.314Z,101276.13
2022-11-28T15:08:16.263Z,101282.72
2022-11-28T15:14:10.948Z,101275.28
2022-11-28T15:19:48.868Z,101274.47
2022-11-28T15:24:55.720Z,101283.56
2022-11-28T15:30:09.778Z,101286.09
2022-11-28T15:35:18.502Z,101277.09
2022-11-28T15:40:38.258Z,101282.31
2022-11-28T15:45:48.987Z,101288.66
2022-11-28T15:50:56.127Z,101294.72
2022-11-28T15:56:19.011Z,101298.03
2022-11-28T16:01:26.179Z,101303.22
2022-11-28T16:06:46.926Z,101304.59
2022-11-28T16:12:28.142Z,101310.09
2022-11-28T16:17:38.196Z,101312.25
2022-11-28T16:28:37.770Z,101328.13
2022-11-28T16:33:58.877Z,101331.41
2022-11-28T16:39:20.637Z,101336.31
2022-11-28T16:44:38.850Z,101341.25
2022-11-28T16:50:25.621Z,101351.09
2022-11-28T16:55:40.076Z,101348.31
2022-11-28T17:01:04.842Z,101366.88
2022-11-28T17:06:30.214Z,101361.38
2022-11-28T17:11:50.254Z,101366.28
2022-11-28T17:17:05.184Z,101373.91
2022-11-28T17:22:46.304Z,101377.47
2022-11-28T17:28:01.785Z,101378.25
2022-11-28T17:33:05.404Z,101383.69
2022-11-28T17:38:13.443Z,101391.63
2022-11-28T17:43:22.303Z,101393.53
2022-11-28T17:48:30.227Z,101385.28
2022-11-28T17:53:35.807Z,101394.56
2022-11-28T17:58:41.840Z,101397.81
2022-11-28T18:03:48.375Z,101409.59
2022-11-28T18:08:53.618Z,101416.13
2022-11-28T18:14:03.688Z,101411.75
2022-11-28T18:19:08.867Z,101432.81
2022-11-28T18:24:14.616Z,101431.13
2022-11-28T18:29:22.015Z,101434.63
2022-11-28T18:34:28.321Z,101439.22
2022-11-28T18:39:35.375Z,101433.97
2022-11-28T18:44:48.634Z,101437.81
2022-11-28T18:49:51.450Z,101448.22
2022-11-28T18:55:06.557Z,101456.19
2022-11-28T19:00:12.493Z,101463.38
2022-11-28T19:05:16.217Z,101462.84
2022-11-28T19:10:31.520Z,101458.72
2022-11-28T19:21:00.244Z,101475.63
2022-11-28T19:26:11.793Z,101478.63
2022-11-28T19:31:17.845Z,101482.97
2022-11-28T19:36:21.185Z,101490.03
2022-11-28T19:41:31.051Z,101493.28
2022-11-28T19:46:36.438Z,101490.47
2022-11-28T19:51:41.232Z,101498.09
2022-11-28T19:56:49.420Z,101502.19
2022-11-28T20:01:57.666Z,101496.97
2022-11-28T20:07:00.401Z,101496.97
2022-11-28T20:12:02.833Z,101513.91
2022-11-28T20:17:11.149Z,101517.72
2022-11-28T20:22:17.079Z,101526.22
2022-11-28T20:27:27.861Z,101523.31
2022-11-28T20:32:39.422Z,101518.81
2022-11-28T20:37:46.152Z,101510.47
2022-11-28T20:48:24.016Z,101527.81
2022-11-28T20:53:31.869Z,101527.75
2022-11-28T20:58:43.320Z,101523.69
2022-11-28T21:03:48.509Z,101521.78
2022-11-28T21:08:54.509Z,101525.91
2022-11-28T21:13:57.689Z,101512.59
2022-11-28T21:19:10.492Z,101510.69
2022-11-28T21:24:16.622Z,101517.59
2022-11-28T21:29:23.743Z,101520.13
2022-11-28T21:34:28.867Z,101520.00
2022-11-28T21:39:34.616Z,101517.63
2022-11-28T21:45:13.282Z,101498.94
2022-11-28T21:50:29.566Z,101500.53
2022-11-28T21:55:35.645Z,101510.84
2022-11-28T22:00:54.028Z,101508.31
2022-11-28T22:06:38.811Z,101517.06
2022-11-28T22:11:43.212Z,101517.88
2022-11-28T22:16:46.698Z,101522.50
2022-11-28T22:21:58.744Z,101529.84
2022-11-28T22:27:05.834Z,101523.34
2022-11-28T22:32:13.330Z,101521.69
2022-11-28T22:37:23.083Z,101528.22
2022-11-28T22:42:27.427Z,101533.06
2022-11-28T22:47:32.822Z,101529.78
2022-11-28T22:52:37.898Z,101543.41
2022-11-28T22:57:51.175Z,101541.97
2022-11-28T23:02:56.261Z,101543.28
2022-11-28T23:13:31.442Z,101543.78
2022-11-28T23:18:37.668Z,101547.50
2022-11-28T23:36:28.110Z,101530.88
2022-11-28T23:41:39.253Z,101529.72
2022-11-28T23:47:11.256Z,101536.63
2022-11-28T23:52:14.532Z,101533.34
2022-11-28T23:57:22.024Z,101532.50
